createdAt,value
2022-09-15T00:02:24.613Z,99276.00
2022-09-15T00:04:51.190Z,99271.00
2022-09-15T00:07:17.681Z,99270.00
2022-09-15T00:09:44.109Z,99275.00
2022-09-15T00:12:10.590Z,99272.00
2022-09-15T00:14:37.047Z,99281.00
2022-09-15T00:17:03.669Z,99276.00
2022-09-15T00:19:30.128Z,99263.00
2022-09-15T00:21:56.571Z,99265.00
2022-09-15T00:24:23.018Z,99265.00
2022-09-15T00:26:49.486Z,99259.00
2022-09-15T00:29:16.081Z,99263.00
2022-09-15T00:31:42.499Z,99254.00
2022-09-15T00:34:12.089Z,99254.00
2022-09-15T00:36:38.524Z,99253.00
2022-09-15T00:39:05.398Z,99251.00
2022-09-15T00:41:31.919Z,99256.00
2022-09-15T00:44:24.395Z,99262.00
2022-09-15T00:47:09.656Z,99258.00
2022-09-15T00:49:41.557Z,99257.00
2022-09-15T00:52:54.690Z,99259.00
2022-09-15T00:55:27.316Z,99265.00
2022-09-15T00:57:57.161Z,99272.00
2022-09-15T01:00:26.482Z,99269.00
2022-09-15T01:02:53.345Z,99264.00
2022-09-15T01:05:23.728Z,99271.00
2022-09-15T01:07:56.065Z,99273.00
2022-09-15T01:10:27.490Z,99263.00
2022-09-15T01:12:57.081Z,99267.00
2022-09-15T01:15:28.626Z,99259.00
2022-09-15T01:18:34.816Z,99267.00
2022-09-15T01:21:08.961Z,99261.00
2022-09-15T01:24:12.098Z,99254.00
2022-09-15T01:26:52.469Z,99261.00
2022-09-15T01:29:37.603Z,99267.00
2022-09-15T01:32:31.377Z,99268.00
2022-09-15T01:35:08.428Z,99269.00
2022-09-15T01:37:39.648Z,99267.00
2022-09-15T01:40:07.167Z,99275.00
2022-09-15T01:42:34.274Z,99276.00
2022-09-15T01:45:08.934Z,99270.00
2022-09-15T01:47:36.330Z,99272.00
2022-09-15T01:50:09.995Z,99275.00
2022-09-15T01:52:37.362Z,99272.00
2022-09-15T01:55:09.864Z,99278.00
2022-09-15T01:57:36.329Z,99275.00
2022-09-15T02:00:03.926Z,99277.00
2022-09-15T02:02:36.206Z,99267.00
2022-09-15T02:05:08.554Z,99266.00
2022-09-15T02:07:47.750Z,99267.00
2022-09-15T02:10:30.865Z,99266.00
2022-09-15T02:12:59.890Z,99265.00
2022-09-15T02:15:33.300Z,99268.00
2022-09-15T02:18:03.090Z,99269.00
2022-09-15T02:20:53.016Z,99274.00
2022-09-15T02:23:32.792Z,99274.00
2022-09-15T02:26:06.668Z,99274.00
2022-09-15T02:28:36.263Z,99285.00
2022-09-15T02:31:04.178Z,99275.00
2022-09-15T02:33:35.713Z,99280.00
2022-09-15T02:36:03.326Z,99266.00
2022-09-15T02:38:35.157Z,99265.00
2022-09-15T02:41:02.275Z,99265.00
2022-09-15T02:43:29.568Z,99261.00
2022-09-15T02:45:56.084Z,99253.00
2022-09-15T02:48:22.705Z,99256.00
2022-09-15T02:50:49.165Z,99249.00
2022-09-15T02:53:15.599Z,99254.00
2022-09-15T02:55:42.223Z,99242.00
2022-09-15T02:58:08.675Z,99265.00
2022-09-15T03:00:35.249Z,99271.00
2022-09-15T03:03:01.766Z,99279.00
2022-09-15T03:05:29.952Z,99285.00
2022-09-15T03:07:56.963Z,99276.00
2022-09-15T03:10:24.640Z,99279.00
2022-09-15T03:12:53.139Z,99278.00
2022-09-15T03:15:22.210Z,99278.00
2022-09-15T03:17:48.811Z,99273.00
2022-09-15T03:20:19.960Z,99269.00
2022-09-15T03:22:46.959Z,99266.00
2022-09-15T03:25:13.610Z,99268.00
2022-09-15T03:27:40.212Z,99261.00
2022-09-15T03:30:07.733Z,99266.00
2022-09-15T03:32:34.233Z,99271.00
2022-09-15T03:35:00.770Z,99273.00
2022-09-15T03:37:27.589Z,99271.00
2022-09-15T03:39:54.174Z,99277.00
2022-09-15T03:42:21.380Z,99275.00
2022-09-15T03:44:47.966Z,99275.00
2022-09-15T03:47:14.553Z,99265.00
2022-09-15T03:49:40.980Z,99265.00
2022-09-15T03:52:07.690Z,99267.00
2022-09-15T03:54:35.410Z,99270.00
2022-09-15T03:57:01.941Z,99263.00
2022-09-15T03:59:28.359Z,99257.00
2022-09-15T04:01:54.828Z,99264.00
2022-09-15T04:04:21.317Z,99262.00
2022-09-15T04:06:47.805Z,99260.00
2022-09-15T04:09:14.493Z,99270.00
2022-09-15T04:11:40.933Z,99267.00
2022-09-15T04:14:07.389Z,99263.00
2022-09-15T04:16:33.997Z,99264.00
2022-09-15T04:19:01.471Z,99268.00
2022-09-15T04:21:27.906Z,99264.00
2022-09-15T04:23:54.430Z,99270.00
2022-09-15T04:26:32.970Z,99269.00
2022-09-15T04:29:03.919Z,99266.00
2022-09-15T04:31:31.977Z,99266.00
2022-09-15T04:33:59.278Z,99265.00
2022-09-15T04:36:28.186Z,99258.00
2022-09-15T04:38:55.284Z,99267.00
2022-09-15T04:41:22.049Z,99267.00
2022-09-15T04:43:48.599Z,99266.00
2022-09-15T04:46:15.488Z,99266.00
2022-09-15T04:48:43.132Z,99260.00
2022-09-15T04:51:20.763Z,99264.00
2022-09-15T04:53:47.340Z,99266.00
2022-09-15T04:56:18.866Z,99265.00
2022-09-15T04:58:48.185Z,99269.00
2022-09-15T05:01:22.037Z,99264.00
2022-09-15T05:03:49.087Z,99261.00
2022-09-15T05:06:18.924Z,99263.00
2022-09-15T05:08:53.313Z,99267.00
2022-09-15T05:11:20.046Z,99258.00
2022-09-15T05:13:46.964Z,99265.00
2022-09-15T05:16:14.610Z,99264.00
2022-09-15T05:18:42.762Z,99262.00
2022-09-15T05:21:10.813Z,99265.00
2022-09-15T05:23:37.703Z,99267.00
2022-09-15T05:26:06.646Z,99265.00
2022-09-15T05:28:34.773Z,99260.00
2022-09-15T05:31:01.505Z,99258.00
2022-09-15T05:33:28.237Z,99263.00
2022-09-15T05:35:59.380Z,99267.00
2022-09-15T05:38:27.876Z,99259.00
2022-09-15T05:40:54.428Z,99265.00
2022-09-15T05:43:21.327Z,99258.00
2022-09-15T05:45:54.876Z,99256.00
2022-09-15T05:48:21.676Z,99260.00
2022-09-15T05:50:49.900Z,99265.00
2022-09-15T05:53:16.341Z,99258.00
2022-09-15T05:55:42.902Z,99255.00
2022-09-15T05:58:09.777Z,99255.00
2022-09-15T06:00:36.660Z,99255.00
2022-09-15T06:03:04.167Z,99255.00
2022-09-15T06:05:30.834Z,99251.00
2022-09-15T06:07:57.269Z,99266.00
2022-09-15T06:10:24.977Z,99265.00
2022-09-15T06:12:55.054Z,99280.00
2022-09-15T06:15:22.759Z,99272.00
2022-09-15T06:17:49.460Z,99277.00
2022-09-15T06:20:16.048Z,99282.00
2022-09-15T06:22:42.529Z,99274.00
2022-09-15T06:25:09.085Z,99270.00
2022-09-15T06:27:35.527Z,99277.00
2022-09-15T06:30:01.944Z,99281.00
2022-09-15T06:32:28.401Z,99279.00
2022-09-15T06:34:54.851Z,99278.00
2022-09-15T06:37:21.479Z,99273.00
2022-09-15T06:39:48.077Z,99269.00
2022-09-15T06:42:14.552Z,99271.00
2022-09-15T06:44:41.498Z,99267.00
2022-09-15T06:47:08.029Z,99269.00
2022-09-15T06:49:34.539Z,99273.00
2022-09-15T06:52:02.460Z,99269.00
2022-09-15T06:54:28.941Z,99271.00
2022-09-15T06:56:55.431Z,99270.00
2022-09-15T06:59:23.875Z,99270.00
2022-09-15T07:01:54.640Z,99271.00
2022-09-15T07:04:23.850Z,99273.00
2022-09-15T07:06:53.355Z,99278.00
2022-09-15T07:09:19.802Z,99271.00
2022-09-15T07:11:46.276Z,99275.00
2022-09-15T07:14:12.778Z,99276.00
2022-09-15T07:16:39.363Z,99278.00
2022-09-15T07:19:06.129Z,99269.00
2022-09-15T07:21:33.539Z,99273.00
2022-09-15T07:24:02.637Z,99276.00
2022-09-15T07:26:33.799Z,99284.00
2022-09-15T07:29:02.799Z,99286.00
2022-09-15T07:31:32.152Z,99278.00
2022-09-15T07:33:59.825Z,99289.00
2022-09-15T07:36:26.733Z,99290.00
2022-09-15T07:38:53.479Z,99308.00
2022-09-15T07:41:22.263Z,99293.00
2022-09-15T07:43:50.883Z,99314.00
2022-09-15T07:46:17.984Z,99314.00
2022-09-15T07:48:49.247Z,99307.00
2022-09-15T07:51:16.546Z,99322.00
2022-09-15T07:53:44.020Z,99327.00
2022-09-15T07:56:10.542Z,99318.00
2022-09-15T07:58:37.004Z,99320.00
2022-09-15T08:01:05.307Z,99326.00
2022-09-15T08:03:32.358Z,99329.00
2022-09-15T08:06:00.295Z,99335.00
2022-09-15T08:08:27.109Z,99329.00
2022-09-15T08:10:53.887Z,99324.00
2022-09-15T08:13:20.647Z,99329.00
2022-09-15T08:15:49.149Z,99324.00
2022-09-15T08:18:15.852Z,99317.00
2022-09-15T08:20:43.085Z,99327.00
2022-09-15T08:23:11.012Z,99328.00
2022-09-15T08:25:40.544Z,99327.00
2022-09-15T08:28:07.018Z,99333.00
2022-09-15T08:30:33.561Z,99331.00
2022-09-15T08:33:00.001Z,99341.00
2022-09-15T08:35:26.509Z,99333.00
2022-09-15T08:37:56.772Z,99328.00
2022-09-15T08:40:28.292Z,99328.00
2022-09-15T08:42:57.797Z,99331.00
2022-09-15T08:45:30.758Z,99336.00
2022-09-15T08:48:00.141Z,99341.00
2022-09-15T08:50:33.671Z,99337.00
2022-09-15T08:53:03.155Z,99341.00
2022-09-15T08:55:41.551Z,99336.00
2022-09-15T08:58:14.682Z,99330.00
2022-09-15T09:00:42.144Z,99312.00
2022-09-15T09:03:36.676Z,99333.00
2022-09-15T09:06:21.874Z,99343.00
2022-09-15T09:08:56.029Z,99341.00
2022-09-15T09:11:35.536Z,99332.00
2022-09-15T09:14:18.975Z,99323.00
2022-09-15T09:17:00.097Z,99330.00
2022-09-15T09:19:47.908Z,99330.00
2022-09-15T09:22:17.575Z,99331.00
2022-09-15T09:24:46.294Z,99335.00
2022-09-15T09:27:29.028Z,99340.00
2022-09-15T09:30:12.334Z,99336.00
2022-09-15T09:32:45.017Z,99333.00
2022-09-15T09:35:21.452Z,99335.00
2022-09-15T09:37:49.455Z,99338.00
2022-09-15T09:40:16.370Z,99331.00
2022-09-15T09:42:43.624Z,99333.00
2022-09-15T09:45:13.977Z,99332.00
2022-09-15T09:47:41.342Z,99323.00
2022-09-15T09:50:39.695Z,99328.00
2022-09-15T09:53:28.715Z,99332.00
2022-09-15T09:56:11.493Z,99326.00
2022-09-15T09:58:38.514Z,99333.00
2022-09-15T10:01:14.087Z,99338.00
2022-09-15T10:03:41.871Z,99332.00
2022-09-15T10:06:22.097Z,99333.00
2022-09-15T10:08:57.995Z,99337.00
2022-09-15T10:11:41.948Z,99336.00
2022-09-15T10:14:19.843Z,99342.00
2022-09-15T10:17:06.553Z,99337.00
2022-09-15T10:19:44.132Z,99332.00
2022-09-15T10:22:21.201Z,99338.00
2022-09-15T10:24:50.031Z,99335.00
2022-09-15T10:27:26.144Z,99328.00
2022-09-15T10:29:53.298Z,99334.00
2022-09-15T10:32:29.717Z,99348.00
2022-09-15T10:35:06.557Z,99335.00
2022-09-15T10:37:48.135Z,99331.00
2022-09-15T10:40:26.039Z,99339.00
2022-09-15T10:42:54.072Z,99335.00
2022-09-15T10:45:43.580Z,99349.00
2022-09-15T10:48:19.062Z,99349.00
2022-09-15T10:51:03.901Z,99341.00
2022-09-15T10:53:39.446Z,99334.00
2022-09-15T10:56:44.119Z,99331.00
2022-09-15T10:59:45.791Z,99333.00
2022-09-15T11:02:25.420Z,99326.00
2022-09-15T11:04:57.964Z,99330.00
2022-09-15T11:07:34.413Z,99329.00
2022-09-15T11:10:23.563Z,99326.00
2022-09-15T11:12:59.506Z,99331.00
2022-09-15T11:15:37.290Z,99320.00
2022-09-15T11:18:18.170Z,99314.00
2022-09-15T11:21:09.609Z,99320.00
2022-09-15T11:23:44.212Z,99313.00
2022-09-15T11:26:16.019Z,99320.00
2022-09-15T11:28:51.143Z,99316.00
2022-09-15T11:31:41.428Z,99310.00
2022-09-15T11:34:23.805Z,99315.00
2022-09-15T11:37:11.050Z,99314.00
2022-09-15T11:39:45.063Z,99318.00
2022-09-15T11:42:20.658Z,99307.00
2022-09-15T11:44:47.583Z,99306.00
2022-09-15T11:47:16.494Z,99318.00
2022-09-15T11:49:47.927Z,99306.00
2022-09-15T11:52:22.420Z,99308.00
2022-09-15T11:54:55.346Z,99312.00
2022-09-15T11:57:28.418Z,99317.00
2022-09-15T12:00:00.927Z,99319.00
2022-09-15T12:02:52.770Z,99320.00
2022-09-15T12:05:26.331Z,99325.00
2022-09-15T12:08:10.459Z,99331.00
2022-09-15T12:10:43.522Z,99324.00
2022-09-15T12:13:17.578Z,99329.00
2022-09-15T12:15:45.511Z,99334.00
2022-09-15T12:18:53.416Z,99332.00
2022-09-15T12:21:34.016Z,99337.00
2022-09-15T12:24:11.194Z,99336.00
2022-09-15T12:26:38.250Z,99323.00
2022-09-15T12:29:27.285Z,99329.00
2022-09-15T12:32:19.694Z,99324.00
2022-09-15T12:35:01.354Z,99321.00
2022-09-15T12:37:37.287Z,99327.00
2022-09-15T12:40:06.552Z,99325.00
2022-09-15T12:42:35.051Z,99336.00
2022-09-15T12:45:07.956Z,99331.00
2022-09-15T12:47:38.149Z,99335.00
2022-09-15T12:50:16.631Z,99330.00
2022-09-15T12:52:55.108Z,99337.00
2022-09-15T12:55:24.833Z,99324.00
2022-09-15T12:57:53.461Z,99327.00
2022-09-15T13:00:23.285Z,99335.00
2022-09-15T13:02:51.661Z,99326.00
2022-09-15T13:05:40.168Z,99337.00
2022-09-15T13:08:17.063Z,99329.00
2022-09-15T13:10:59.820Z,99332.00
2022-09-15T13:13:34.767Z,99320.00
2022-09-15T13:16:02.372Z,99324.00
2022-09-15T13:18:30.878Z,99326.00
2022-09-15T13:21:00.550Z,99328.00
2022-09-15T13:23:29.697Z,99329.00
2022-09-15T13:25:57.637Z,99330.00
2022-09-15T13:28:24.985Z,99315.00
2022-09-15T13:31:13.441Z,99313.00
2022-09-15T13:40:05.788Z,99308.00
2022-09-15T13:42:53.638Z,99312.00
2022-09-15T13:45:38.852Z,99307.00
2022-09-15T13:48:19.727Z,99307.00
2022-09-15T13:51:02.608Z,99307.00
2022-09-15T13:53:37.922Z,99297.00
2022-09-15T13:56:06.689Z,99306.00
2022-09-15T14:01:23.468Z,99296.00
2022-09-15T14:03:58.385Z,99304.00
2022-09-15T14:06:33.471Z,99295.00
2022-09-15T14:09:04.537Z,99285.00
2022-09-15T14:11:33.099Z,99293.00
2022-09-15T14:14:00.830Z,99284.00
2022-09-15T14:16:27.824Z,99292.00
2022-09-15T14:18:57.764Z,99293.00
2022-09-15T14:21:32.881Z,99296.00
2022-09-15T14:24:22.156Z,99304.00
2022-09-15T14:26:48.846Z,99289.00
2022-09-15T14:29:19.584Z,99293.00
2022-09-15T14:31:47.431Z,99293.00
2022-09-15T14:34:18.607Z,99291.00
2022-09-15T14:36:45.938Z,99282.00
2022-09-15T14:39:12.438Z,99290.00
2022-09-15T14:41:40.113Z,99292.00
2022-09-15T14:45:54.865Z,99287.00
2022-09-15T14:47:26.338Z,99281.00
2022-09-15T14:50:11.165Z,99285.00
2022-09-15T14:52:40.730Z,99281.00
2022-09-15T14:55:24.062Z,99283.00
2022-09-15T14:58:03.906Z,99284.00
2022-09-15T15:00:35.278Z,99271.00
2022-09-15T15:03:16.175Z,99288.00
2022-09-15T15:06:02.846Z,99282.00
2022-09-15T15:08:40.332Z,99283.00
2022-09-15T15:11:07.886Z,99279.00
2022-09-15T15:13:35.004Z,99284.00
2022-09-15T15:16:06.462Z,99285.00
2022-09-15T15:18:38.504Z,99287.00
2022-09-15T15:21:06.900Z,99297.00
2022-09-15T15:23:33.487Z,99292.00
2022-09-15T15:26:27.192Z,99280.00
2022-09-15T15:28:53.712Z,99278.00
2022-09-15T15:31:25.174Z,99286.00
2022-09-15T15:34:06.857Z,99280.00
2022-09-15T15:36:35.053Z,99294.00
2022-09-15T15:39:05.506Z,99294.00
2022-09-15T15:41:35.923Z,99289.00
2022-09-15T15:44:08.209Z,99305.00
2022-09-15T15:47:01.674Z,99294.00
2022-09-15T15:49:32.750Z,99291.00
2022-09-15T15:52:00.748Z,99294.00
2022-09-15T15:54:27.552Z,99298.00
2022-09-15T15:56:54.523Z,99315.00
2022-09-15T15:59:24.788Z,99317.00
2022-09-15T16:01:54.197Z,99326.00
2022-09-15T16:04:20.687Z,99329.00
2022-09-15T16:06:47.619Z,99334.00
2022-09-15T16:09:14.767Z,99336.00
2022-09-15T16:11:42.670Z,99338.00
2022-09-15T16:14:12.105Z,99334.00
2022-09-15T16:16:38.658Z,99333.00
2022-09-15T16:19:05.154Z,99342.00
2022-09-15T16:21:42.239Z,99346.00
2022-09-15T16:24:13.638Z,99338.00
2022-09-15T16:26:40.369Z,99342.00
2022-09-15T16:29:06.857Z,99344.00
2022-09-15T16:31:33.670Z,99349.00
2022-09-15T16:34:00.260Z,99347.00
2022-09-15T16:36:27.134Z,99348.00
2022-09-15T16:38:53.819Z,99342.00
2022-09-15T16:41:28.421Z,99344.00
2022-09-15T16:43:57.788Z,99346.00
2022-09-15T16:46:24.327Z,99334.00
2022-09-15T16:48:50.920Z,99344.00
2022-09-15T16:51:34.995Z,99336.00
2022-09-15T16:54:01.537Z,99337.00
2022-09-15T16:56:28.125Z,99330.00
2022-09-15T16:59:00.168Z,99335.00
2022-09-15T17:01:27.659Z,99342.00
2022-09-15T17:03:54.230Z,99343.00
2022-09-15T17:06:22.008Z,99341.00
2022-09-15T17:08:48.782Z,99339.00
2022-09-15T17:11:20.465Z,99345.00
2022-09-15T17:13:47.396Z,99352.00
2022-09-15T17:16:17.515Z,99353.00
2022-09-15T17:18:44.113Z,99351.00
2022-09-15T17:21:11.750Z,99349.00
2022-09-15T17:23:39.871Z,99354.00
2022-09-15T17:26:11.444Z,99342.00
2022-09-15T17:28:38.056Z,99345.00
2022-09-15T17:31:09.811Z,99350.00
2022-09-15T17:33:36.361Z,99354.00
2022-09-15T17:36:02.920Z,99351.00
2022-09-15T17:38:29.402Z,99361.00
2022-09-15T17:40:55.954Z,99345.00
2022-09-15T17:43:25.193Z,99356.00
2022-09-15T17:45:52.017Z,99350.00
2022-09-15T17:48:18.731Z,99358.00
2022-09-15T17:50:46.229Z,99355.00
2022-09-15T17:53:23.420Z,99364.00
2022-09-15T17:55:50.825Z,99353.00
2022-09-15T17:58:17.765Z,99354.00
2022-09-15T18:00:44.897Z,99350.00
2022-09-15T18:03:21.929Z,99359.00
2022-09-15T18:05:48.425Z,99350.00
2022-09-15T18:08:16.402Z,99354.00
2022-09-15T18:10:43.380Z,99366.00
2022-09-15T18:13:14.667Z,99362.00
2022-09-15T18:15:42.808Z,99369.00
2022-09-15T18:18:13.541Z,99363.00
2022-09-15T18:20:40.349Z,99371.00
2022-09-15T18:23:06.904Z,99370.00
2022-09-15T18:25:36.531Z,99364.00
2022-09-15T18:28:03.948Z,99370.00
2022-09-15T18:30:42.149Z,99368.00
2022-09-15T18:33:14.849Z,99367.00
2022-09-15T18:35:42.081Z,99364.00
2022-09-15T18:38:08.802Z,99368.00
2022-09-15T18:40:35.477Z,99366.00
2022-09-15T18:43:02.239Z,99371.00
2022-09-15T18:45:28.971Z,99378.00
2022-09-15T18:47:55.420Z,99382.00
2022-09-15T18:50:23.465Z,99391.00
2022-09-15T18:52:50.093Z,99387.00
2022-09-15T18:55:19.589Z,99407.00
2022-09-15T18:57:47.155Z,99404.00
2022-09-15T19:00:22.478Z,99407.00
2022-09-15T19:02:48.930Z,99407.00
2022-09-15T19:05:16.385Z,99407.00
2022-09-15T19:07:44.042Z,99394.00
2022-09-15T19:10:12.438Z,99389.00
2022-09-15T19:12:39.159Z,99389.00
2022-09-15T19:15:10.873Z,99390.00
2022-09-15T19:17:38.545Z,99397.00
2022-09-15T19:20:08.967Z,99395.00
2022-09-15T19:22:36.097Z,99399.00
2022-09-15T19:25:03.297Z,99398.00
2022-09-15T19:27:29.890Z,99394.00
2022-09-15T19:29:56.464Z,99394.00
2022-09-15T19:32:23.132Z,99399.00
2022-09-15T19:34:49.655Z,99400.00
2022-09-15T19:37:18.971Z,99394.00
2022-09-15T19:39:46.433Z,99384.00
2022-09-15T19:42:13.439Z,99387.00
2022-09-15T19:44:41.092Z,99385.00
2022-09-15T19:47:08.463Z,99399.00
2022-09-15T19:49:35.053Z,99391.00
2022-09-15T19:52:01.557Z,99392.00
2022-09-15T19:54:30.037Z,99390.00
2022-09-15T19:56:56.858Z,99395.00
2022-09-15T19:59:27.458Z,99396.00
2022-09-15T20:01:56.790Z,99398.00
2022-09-15T20:04:23.481Z,99389.00
2022-09-15T20:06:49.990Z,99398.00
2022-09-15T20:09:16.987Z,99400.00
2022-09-15T20:11:43.554Z,99401.00
2022-09-15T20:14:10.170Z,99389.00
2022-09-15T20:16:37.075Z,99400.00
2022-09-15T20:19:04.205Z,99396.00
2022-09-15T20:21:50.855Z,99400.00
2022-09-15T20:24:19.576Z,99400.00
2022-09-15T20:26:46.219Z,99402.00
2022-09-15T20:29:13.136Z,99407.00
2022-09-15T20:31:39.846Z,99415.00
2022-09-15T20:34:06.356Z,99417.00
2022-09-15T20:36:35.426Z,99413.00
2022-09-15T20:39:03.816Z,99412.00
2022-09-15T20:41:31.984Z,99412.00
2022-09-15T20:43:58.903Z,99416.00
2022-09-15T20:46:25.505Z,99419.00
2022-09-15T20:48:52.529Z,99417.00
2022-09-15T20:51:23.873Z,99410.00
2022-09-15T20:53:52.372Z,99408.00
2022-09-15T20:56:21.223Z,99415.00
2022-09-15T20:58:48.035Z,99418.00
2022-09-15T21:01:20.723Z,99417.00
2022-09-15T21:03:47.935Z,99411.00
2022-09-15T21:06:17.382Z,99427.00
2022-09-15T21:08:45.962Z,99424.00
2022-09-15T21:11:14.802Z,99434.00
2022-09-15T21:13:44.489Z,99423.00
2022-09-15T21:16:15.114Z,99433.00
2022-09-15T21:18:43.069Z,99421.00
2022-09-15T21:21:14.662Z,99424.00
2022-09-15T21:23:46.790Z,99424.00
2022-09-15T21:26:15.351Z,99427.00
2022-09-15T21:28:43.486Z,99431.00
2022-09-15T21:31:15.124Z,99423.00
2022-09-15T21:33:41.975Z,99431.00
2022-09-15T21:36:10.851Z,99433.00
2022-09-15T21:38:39.253Z,99416.00
2022-09-15T21:41:07.502Z,99431.00
2022-09-15T21:43:36.563Z,99430.00
2022-09-15T21:46:05.036Z,99431.00
2022-09-15T21:48:35.419Z,99438.00
2022-09-15T21:51:02.980Z,99427.00
2022-09-15T21:53:29.795Z,99438.00
2022-09-15T21:56:00.604Z,99431.00
2022-09-15T21:58:39.003Z,99437.00
2022-09-15T22:01:14.112Z,99437.00
2022-09-15T22:03:44.541Z,99443.00
2022-09-15T22:06:12.452Z,99452.00
2022-09-15T22:08:39.792Z,99453.00
2022-09-15T22:11:07.379Z,99447.00
2022-09-15T22:13:35.927Z,99447.00
2022-09-15T22:16:05.516Z,99452.00
2022-09-15T22:18:32.044Z,99448.00
2022-09-15T22:21:12.993Z,99455.00
2022-09-15T22:23:40.058Z,99452.00
2022-09-15T22:26:12.499Z,99465.00
2022-09-15T22:28:39.147Z,99463.00
2022-09-15T22:31:08.111Z,99467.00
2022-09-15T22:33:34.770Z,99466.00
2022-09-15T22:36:01.746Z,99460.00
2022-09-15T22:38:29.784Z,99468.00
2022-09-15T22:40:56.742Z,99457.00
2022-09-15T22:43:23.505Z,99455.00
2022-09-15T22:45:50.045Z,99455.00
2022-09-15T22:48:16.577Z,99461.00
2022-09-15T22:50:46.142Z,99448.00
2022-09-15T22:53:13.011Z,99458.00
2022-09-15T22:55:39.869Z,99457.00
2022-09-15T22:58:07.076Z,99456.00
2022-09-15T23:00:34.139Z,99458.00
2022-09-15T23:03:00.627Z,99465.00
2022-09-15T23:05:32.449Z,99468.00
2022-09-15T23:07:59.232Z,99467.00
2022-09-15T23:10:26.683Z,99466.00
2022-09-15T23:12:55.322Z,99466.00
2022-09-15T23:15:22.155Z,99459.00
2022-09-15T23:17:48.867Z,99472.00
2022-09-15T23:20:15.364Z,99459.00
2022-09-15T23:22:41.895Z,99461.00
2022-09-15T23:25:08.752Z,99470.00
2022-09-15T23:27:35.249Z,99458.00
2022-09-15T23:30:01.684Z,99468.00
2022-09-15T23:32:28.126Z,99462.00
2022-09-15T23:34:54.786Z,99471.00
2022-09-15T23:37:21.621Z,99464.00
2022-09-15T23:39:48.364Z,99460.00
2022-09-15T23:42:18.785Z,99460.00
2022-09-15T23:44:45.793Z,99464.00
2022-09-15T23:47:12.249Z,99455.00
2022-09-15T23:49:38.708Z,99459.00
2022-09-15T23:52:05.167Z,99463.00
2022-09-15T23:54:31.612Z,99460.00
2022-09-15T23:56:58.104Z,99465.00
2022-09-15T23:59:24.769Z,99466.00
